Language: 


Des rapports , des résumés tant et plus, au choix de chacun....


Données Historiques de Météogheer
Journalier Rapport pour Janvier 6, 2017 Unitée:  Les deux    Impériale   Métrique
Suivant Jour »
Journalier Hebdomadaire Mensuel Annuel Sur mesure
  Max: Min: Moyenne:
Température: 36.7 °F /  2.6 °C 27 °F /  -2.8 °C 31.6 °F /  -0.2 °C
Point de rosée: 30 °F /  -1.1 °C 25.3 °F /  -3.7 °C 27.3 °F /  -2.6 °C
Humidité: 95% 77% 85%
Vent: 10.1mph /  16.3km/h - 4mph /  6.4km/h
Rafales: 20.1mph /  32.3km/h - -
Vent- - South
Pression: 30.7 in /  1038.8 hPa 30.6 in /  1035.1 hPa -
Pluie: 0 in /  0.0 mm    
Historical Graphs
 
 
Données tabulaires pour Janvier 6, 2017
Heure Température Point de rosée Pression Vent Vent Rafales Humidité Pluie Taux (Horaire) Conditions
00:09 28.6 °F /  -1.9 °C 27 °F /  -2.8 °C 30.6in /  1037.1hPa ENE 1.6mph /  2.6km/h 4mph /  6.4km/h 93% 0in /  0.0mm
00:19 28.6 °F /  -1.9 °C 27 °F /  -2.8 °C 30.6in /  1037.1hPa ESE 2.7mph /  4.3km/h 2.7mph /  4.3km/h 93% 0in /  0.0mm
00:29 28.6 °F /  -1.9 °C 27 °F /  -2.8 °C 30.6in /  1037.1hPa East 2mph /  3.2km/h 2.9mph /  4.7km/h 93% 0in /  0.0mm
00:39 28.6 °F /  -1.9 °C 27 °F /  -2.8 °C 30.6in /  1037.1hPa ESE 3.8mph /  6.1km/h 3.8mph /  6.1km/h 93% 0in /  0.0mm
00:49 28.6 °F /  -1.9 °C 27 °F /  -2.8 °C 30.6in /  1037.1hPa NE 3.1mph /  5.0km/h 4.3mph /  6.9km/h 93% 0in /  0.0mm
00:59 28.6 °F /  -1.9 °C 27 °F /  -2.8 °C 30.6in /  1037.1hPa East 2.7mph /  4.3km/h 3.8mph /  6.1km/h 93% 0in /  0.0mm
01:09 28.6 °F /  -1.9 °C 27 °F /  -2.8 °C 30.6in /  1037.1hPa East 1.6mph /  2.6km/h 3.8mph /  6.1km/h 93% 0in /  0.0mm
01:19 28.6 °F /  -1.9 °C 27 °F /  -2.8 °C 30.6in /  1037.1hPa ESE 2.2mph /  3.5km/h 3.4mph /  5.5km/h 93% 0in /  0.0mm
01:29 28.6 °F /  -1.9 °C 27 °F /  -2.8 °C 30.6in /  1037.1hPa Calm   2.9mph /  4.7km/h 93% 0in /  0.0mm
01:39 28.6 °F /  -1.9 °C 27 °F /  -2.8 °C 30.6in /  1037.1hPa Calm   1.6mph /  2.6km/h 93% 0in /  0.0mm
01:49 28.6 °F /  -1.9 °C 27 °F /  -2.8 °C 30.6in /  1037.1hPa Calm     93% 0in /  0.0mm
01:59 28.6 °F /  -1.9 °C 27 °F /  -2.8 °C 30.6in /  1037.1hPa Calm     93% 0in /  0.0mm
07:19 27.1 °F /  -2.7 °C 25.3 °F /  -3.7 °C 30.7in /  1038.1hPa Calm   2.5mph /  4.0km/h 93% 0in /  0.0mm
07:29 27.1 °F /  -2.7 °C 25.3 °F /  -3.7 °C 30.7in /  1038.1hPa Calm     93% 0in /  0.0mm
07:39 27.1 °F /  -2.7 °C 25.3 °F /  -3.7 °C 30.7in /  1038.1hPa Calm     93% 0in /  0.0mm
07:49 27.1 °F /  -2.7 °C 25.3 °F /  -3.7 °C 30.7in /  1038.1hPa Calm     93% 0in /  0.0mm
07:59 27.1 °F /  -2.7 °C 25.3 °F /  -3.7 °C 30.7in /  1038.1hPa SE 3.1mph /  5.0km/h 3.6mph /  5.8km/h 93% 0in /  0.0mm
08:09 27.1 °F /  -2.7 °C 25.3 °F /  -3.7 °C 30.7in /  1038.1hPa Calm   2.9mph /  4.7km/h 93% 0in /  0.0mm
08:19 27.1 °F /  -2.7 °C 25.3 °F /  -3.7 °C 30.7in /  1038.1hPa Calm   2.9mph /  4.7km/h 93% 0in /  0.0mm
08:29 27.1 °F /  -2.7 °C 25.3 °F /  -3.7 °C 30.7in /  1038.8hPa Calm   2.5mph /  4.0km/h 93% 0in /  0.0mm
08:39 27.1 °F /  -2.7 °C 25.3 °F /  -3.7 °C 30.7in /  1038.8hPa South 2.5mph /  4.0km/h 3.4mph /  5.5km/h 93% 0in /  0.0mm
08:49 27 °F /  -2.8 °C 25.5 °F /  -3.6 °C 30.7in /  1038.8hPa South 2mph /  3.2km/h 3.1mph /  5.0km/h 95% 0in /  0.0mm
08:59 27 °F /  -2.8 °C 25.3 °F /  -3.7 °C 30.7in /  1038.8hPa Calm   2.5mph /  4.0km/h 94% 0in /  0.0mm
09:09 27 °F /  -2.8 °C 25.3 °F /  -3.7 °C 30.7in /  1038.8hPa SSE 2mph /  3.2km/h 3.8mph /  6.1km/h 94% 0in /  0.0mm
09:19 27 °F /  -2.8 °C 25.3 °F /  -3.7 °C 30.7in /  1038.8hPa SE 1.6mph /  2.6km/h 2.7mph /  4.3km/h 94% 0in /  0.0mm
09:29 27.1 °F /  -2.7 °C 26.1 °F /  -3.3 °C 30.7in /  1038.8hPa SSE 2mph /  3.2km/h 4mph /  6.4km/h 95% 0in /  0.0mm
09:39 27.1 °F /  -2.7 °C 26.1 °F /  -3.3 °C 30.7in /  1038.8hPa Calm   4mph /  6.4km/h 95% 0in /  0.0mm
09:49 27.1 °F /  -2.7 °C 26.1 °F /  -3.3 °C 30.7in /  1038.8hPa South 1.1mph /  1.8km/h 2.7mph /  4.3km/h 95% 0in /  0.0mm
09:59 28 °F /  -2.2 °C 27 °F /  -2.8 °C 30.7in /  1038.8hPa South 2.7mph /  4.3km/h 3.4mph /  5.5km/h 95% 0in /  0.0mm
10:09 28.8 °F /  -1.8 °C 27.3 °F /  -2.6 °C 30.7in /  1038.1hPa South 2.9mph /  4.7km/h 3.8mph /  6.1km/h 94% 0in /  0.0mm
10:19 28.8 °F /  -1.8 °C 27.3 °F /  -2.6 °C 30.7in /  1038.1hPa South 3.1mph /  5.0km/h 5.4mph /  8.7km/h 94% 0in /  0.0mm
10:29 28.8 °F /  -1.8 °C 27.3 °F /  -2.6 °C 30.7in /  1038.8hPa SSW 6mph /  9.7km/h 6mph /  9.7km/h 94% 0in /  0.0mm
10:39 28.8 °F /  -1.8 °C 27.3 °F /  -2.6 °C 30.7in /  1038.8hPa Calm   5.8mph /  9.3km/h 94% 0in /  0.0mm
10:49 28.8 °F /  -1.8 °C 27.3 °F /  -2.6 °C 30.7in /  1038.8hPa South 4.3mph /  6.9km/h 6.5mph /  10.5km/h 94% 0in /  0.0mm
10:59 28.8 °F /  -1.8 °C 27.3 °F /  -2.6 °C 30.7in /  1038.8hPa South 3.6mph /  5.8km/h 5.6mph /  9.0km/h 94% 0in /  0.0mm
11:09 28.8 °F /  -1.8 °C 27.3 °F /  -2.6 °C 30.7in /  1038.8hPa South 3.1mph /  5.0km/h 5.8mph /  9.3km/h 94% 0in /  0.0mm
11:19 28.8 °F /  -1.8 °C 27.3 °F /  -2.6 °C 30.7in /  1038.8hPa South 4.3mph /  6.9km/h 5.6mph /  9.0km/h 94% 0in /  0.0mm
11:29 28.8 °F /  -1.8 °C 27.3 °F /  -2.6 °C 30.7in /  1038.8hPa South 3.8mph /  6.1km/h 5.8mph /  9.3km/h 94% 0in /  0.0mm
11:39 28.8 °F /  -1.8 °C 27.3 °F /  -2.6 °C 30.7in /  1038.8hPa South 3.8mph /  6.1km/h 5.8mph /  9.3km/h 94% 0in /  0.0mm
11:49 28.8 °F /  -1.8 °C 27.3 °F /  -2.6 °C 30.7in /  1038.8hPa SSE 5.6mph /  9.0km/h 7.2mph /  11.6km/h 94% 0in /  0.0mm
11:59 28.8 °F /  -1.8 °C 27.3 °F /  -2.6 °C 30.7in /  1038.8hPa SSW 3.8mph /  6.1km/h 8.1mph /  13.0km/h 94% 0in /  0.0mm
12:09 35.8 °F /  2.1 °C 29.8 °F /  -1.2 °C 30.7in /  1038.8hPa SSW 6.3mph /  10.1km/h 6.5mph /  10.5km/h 79% 0in /  0.0mm
12:19 35.8 °F /  2.1 °C 29.8 °F /  -1.2 °C 30.7in /  1038.8hPa South 4.3mph /  6.9km/h 6.3mph /  10.1km/h 79% 0in /  0.0mm
12:29 36.1 °F /  2.3 °C 30 °F /  -1.1 °C 30.7in /  1038.1hPa Calm   6mph /  9.7km/h 78% 0in /  0.0mm
12:39 36.3 °F /  2.4 °C 29.8 °F /  -1.2 °C 30.7in /  1038.1hPa South 3.8mph /  6.1km/h 6mph /  9.7km/h 77% 0in /  0.0mm
12:49 36.7 °F /  2.6 °C 30 °F /  -1.1 °C 30.7in /  1038.1hPa South 3.8mph /  6.1km/h 7.2mph /  11.6km/h 77% 0in /  0.0mm
12:59 36.7 °F /  2.6 °C 30 °F /  -1.1 °C 30.7in /  1038.1hPa SSW 6.3mph /  10.1km/h 6.3mph /  10.1km/h 77% 0in /  0.0mm
13:09 36.7 °F /  2.6 °C 30 °F /  -1.1 °C 30.7in /  1038.1hPa South 3.4mph /  5.5km/h 6.9mph /  11.1km/h 77% 0in /  0.0mm
13:19 36.7 °F /  2.6 °C 30 °F /  -1.1 °C 30.7in /  1038.1hPa SW 3.6mph /  5.8km/h 7.2mph /  11.6km/h 77% 0in /  0.0mm
13:29 36.7 °F /  2.6 °C 30 °F /  -1.1 °C 30.6in /  1037.1hPa South 3.1mph /  5.0km/h 19.7mph /  31.7km/h 77% 0in /  0.0mm
13:39 36.7 °F /  2.6 °C 30 °F /  -1.1 °C 30.6in /  1037.1hPa South 4.3mph /  6.9km/h 7.2mph /  11.6km/h 77% 0in /  0.0mm
13:49 36.7 °F /  2.6 °C 30 °F /  -1.1 °C 30.6in /  1037.1hPa SSW 4mph /  6.4km/h 6mph /  9.7km/h 77% 0in /  0.0mm
13:59 36.7 °F /  2.6 °C 30 °F /  -1.1 °C 30.6in /  1036.1hPa SSW 6mph /  9.7km/h 6mph /  9.7km/h 77% 0in /  0.0mm
14:09 36.7 °F /  2.6 °C 30 °F /  -1.1 °C 30.6in /  1037.1hPa South 5.4mph /  8.7km/h 7.4mph /  11.9km/h 77% 0in /  0.0mm
14:19 36.7 °F /  2.6 °C 30 °F /  -1.1 °C 30.6in /  1037.1hPa South 1.6mph /  2.6km/h 6mph /  9.7km/h 77% 0in /  0.0mm
14:29 36.7 °F /  2.6 °C 30 °F /  -1.1 °C 30.7in /  1038.1hPa SSW 4.3mph /  6.9km/h 9.6mph /  15.4km/h 77% 0in /  0.0mm
14:39 36.7 °F /  2.6 °C 30 °F /  -1.1 °C 30.7in /  1038.1hPa SSE 2.9mph /  4.7km/h 20.1mph /  32.3km/h 77% 0in /  0.0mm
14:49 36.7 °F /  2.6 °C 30 °F /  -1.1 °C 30.7in /  1038.1hPa SSW 5.8mph /  9.3km/h 8.5mph /  13.7km/h 77% 0in /  0.0mm
14:59 36.7 °F /  2.6 °C 30 °F /  -1.1 °C 30.6in /  1037.1hPa South 5.8mph /  9.3km/h 7.4mph /  11.9km/h 77% 0in /  0.0mm
15:09 36.7 °F /  2.6 °C 30 °F /  -1.1 °C 30.6in /  1037.1hPa South 3.1mph /  5.0km/h 7.2mph /  11.6km/h 77% 0in /  0.0mm
15:19 36.7 °F /  2.6 °C 30 °F /  -1.1 °C 30.6in /  1037.1hPa South 6mph /  9.7km/h 6.3mph /  10.1km/h 77% 0in /  0.0mm
15:29 36.7 °F /  2.6 °C 30 °F /  -1.1 °C 30.6in /  1037.1hPa SSE 4mph /  6.4km/h 7.8mph /  12.6km/h 77% 0in /  0.0mm
15:39 36.7 °F /  2.6 °C 30 °F /  -1.1 °C 30.6in /  1037.1hPa South 5.8mph /  9.3km/h 6mph /  9.7km/h 77% 0in /  0.0mm
15:49 36.7 °F /  2.6 °C 30 °F /  -1.1 °C 30.6in /  1037.1hPa SSW 6mph /  9.7km/h 6mph /  9.7km/h 77% 0in /  0.0mm
15:59 36.7 °F /  2.6 °C 30 °F /  -1.1 °C 30.6in /  1037.1hPa South 10.1mph /  16.3km/h 10.1mph /  16.3km/h 77% 0in /  0.0mm
16:09 36.7 °F /  2.6 °C 30 °F /  -1.1 °C 30.6in /  1037.1hPa South 8.1mph /  13.0km/h 8.1mph /  13.0km/h 77% 0in /  0.0mm
16:19 36.7 °F /  2.6 °C 30 °F /  -1.1 °C 30.6in /  1037.1hPa South 6.3mph /  10.1km/h 7.6mph /  12.2km/h 77% 0in /  0.0mm
16:29 36.7 °F /  2.6 °C 30 °F /  -1.1 °C 30.6in /  1037.1hPa South 2.9mph /  4.7km/h 7.4mph /  11.9km/h 77% 0in /  0.0mm
16:39 36.7 °F /  2.6 °C 30 °F /  -1.1 °C 30.6in /  1037.1hPa South 2.7mph /  4.3km/h 5.4mph /  8.7km/h 77% 0in /  0.0mm
16:49 36.7 °F /  2.6 °C 30 °F /  -1.1 °C 30.6in /  1037.1hPa South 6mph /  9.7km/h 9.2mph /  14.8km/h 77% 0in /  0.0mm
16:59 36.7 °F /  2.6 °C 30 °F /  -1.1 °C 30.7in /  1038.1hPa SSE 2.9mph /  4.7km/h 7.8mph /  12.6km/h 77% 0in /  0.0mm
17:09 36.7 °F /  2.6 °C 30 °F /  -1.1 °C 30.6in /  1037.1hPa SSW 2.9mph /  4.7km/h 6.5mph /  10.5km/h 77% 0in /  0.0mm
17:19 36.7 °F /  2.6 °C 30 °F /  -1.1 °C 30.6in /  1037.1hPa SSW 5.4mph /  8.7km/h 6mph /  9.7km/h 77% 0in /  0.0mm
17:29 36.7 °F /  2.6 °C 30 °F /  -1.1 °C 30.6in /  1036.1hPa Calm   6.9mph /  11.1km/h 77% 0in /  0.0mm
17:39 32 °F /  0.0 °C 26.2 °F /  -3.2 °C 30.6in /  1037.1hPa SSW 5.4mph /  8.7km/h 7.2mph /  11.6km/h 79% 0in /  0.0mm
17:49 31.6 °F /  -0.2 °C 25.9 °F /  -3.4 °C 30.6in /  1037.1hPa South 8.5mph /  13.7km/h 8.5mph /  13.7km/h 79% 0in /  0.0mm
17:59 31.5 °F /  -0.3 °C 26.1 °F /  -3.3 °C 30.6in /  1037.1hPa South 5.4mph /  8.7km/h 8.7mph /  14.0km/h 80% 0in /  0.0mm
18:09 31.3 °F /  -0.4 °C 26.1 °F /  -3.3 °C 30.6in /  1037.1hPa South 3.6mph /  5.8km/h 6.5mph /  10.5km/h 81% 0in /  0.0mm
18:19 31.3 °F /  -0.4 °C 26.1 °F /  -3.3 °C 30.6in /  1037.1hPa South 4.9mph /  7.9km/h 6mph /  9.7km/h 81% 0in /  0.0mm
18:29 31.3 °F /  -0.4 °C 26.1 °F /  -3.3 °C 30.6in /  1037.1hPa South 4mph /  6.4km/h 6.5mph /  10.5km/h 81% 0in /  0.0mm
18:39 31.3 °F /  -0.4 °C 26.1 °F /  -3.3 °C 30.6in /  1037.1hPa South 8.5mph /  13.7km/h 8.5mph /  13.7km/h 81% 0in /  0.0mm
18:49 31.3 °F /  -0.4 °C 26.1 °F /  -3.3 °C 30.6in /  1037.1hPa South 5.4mph /  8.7km/h 8.1mph /  13.0km/h 81% 0in /  0.0mm
18:59 31.3 °F /  -0.4 °C 26.1 °F /  -3.3 °C 30.6in /  1036.1hPa SSW 3.8mph /  6.1km/h 7.4mph /  11.9km/h 81% 0in /  0.0mm
19:09 31.3 °F /  -0.4 °C 26.1 °F /  -3.3 °C 30.6in /  1037.1hPa South 5.6mph /  9.0km/h 8.1mph /  13.0km/h 81% 0in /  0.0mm
19:19 31.3 °F /  -0.4 °C 26.1 °F /  -3.3 °C 30.6in /  1037.1hPa SSW 5.8mph /  9.3km/h 8.5mph /  13.7km/h 81% 0in /  0.0mm
19:29 31.3 °F /  -0.4 °C 26.1 °F /  -3.3 °C 30.6in /  1037.1hPa South 4.3mph /  6.9km/h 7.6mph /  12.2km/h 81% 0in /  0.0mm
19:40 31.3 °F /  -0.4 °C 26.1 °F /  -3.3 °C 30.6in /  1037.1hPa SSW 3.6mph /  5.8km/h 8.5mph /  13.7km/h 81% 0in /  0.0mm
19:50 31.3 °F /  -0.4 °C 26.1 °F /  -3.3 °C 30.6in /  1037.1hPa South 6.3mph /  10.1km/h 7.8mph /  12.6km/h 81% 0in /  0.0mm
20:00 31.3 °F /  -0.4 °C 26.1 °F /  -3.3 °C 30.6in /  1037.1hPa South 8.1mph /  13.0km/h 8.1mph /  13.0km/h 81% 0in /  0.0mm
20:10 31.3 °F /  -0.4 °C 26.1 °F /  -3.3 °C 30.6in /  1037.1hPa South 4.7mph /  7.6km/h 8.1mph /  13.0km/h 81% 0in /  0.0mm
20:20 31.3 °F /  -0.4 °C 26.1 °F /  -3.3 °C 30.6in /  1037.1hPa SW 4mph /  6.4km/h 8.5mph /  13.7km/h 81% 0in /  0.0mm
20:30 31.3 °F /  -0.4 °C 26.1 °F /  -3.3 °C 30.6in /  1037.1hPa South 7.8mph /  12.6km/h 9.6mph /  15.4km/h 81% 0in /  0.0mm
20:40 31.3 °F /  -0.4 °C 26.1 °F /  -3.3 °C 30.6in /  1037.1hPa South 3.8mph /  6.1km/h 7.8mph /  12.6km/h 81% 0in /  0.0mm
20:50 31.3 °F /  -0.4 °C 26.1 °F /  -3.3 °C 30.6in /  1037.1hPa SW 3.4mph /  5.5km/h 10.5mph /  16.9km/h 81% 0in /  0.0mm
21:00 31.3 °F /  -0.4 °C 26.1 °F /  -3.3 °C 30.6in /  1036.1hPa SSW 5.4mph /  8.7km/h 8.1mph /  13.0km/h 81% 0in /  0.0mm
21:10 31.3 °F /  -0.4 °C 26.1 °F /  -3.3 °C 30.6in /  1036.1hPa South 5.4mph /  8.7km/h 10.5mph /  16.9km/h 81% 0in /  0.0mm
21:20 31.3 °F /  -0.4 °C 26.1 °F /  -3.3 °C 30.6in /  1036.1hPa South 8.5mph /  13.7km/h 10.1mph /  16.3km/h 81% 0in /  0.0mm
21:30 31.3 °F /  -0.4 °C 26.1 °F /  -3.3 °C 30.6in /  1036.1hPa SSW 5.4mph /  8.7km/h 10.5mph /  16.9km/h 81% 0in /  0.0mm
21:40 31.3 °F /  -0.4 °C 26.1 °F /  -3.3 °C 30.6in /  1036.1hPa SSW 3.4mph /  5.5km/h 9.8mph /  15.8km/h 81% 0in /  0.0mm
21:50 31.3 °F /  -0.4 °C 26.1 °F /  -3.3 °C 30.6in /  1036.1hPa South 7.2mph /  11.6km/h 9.2mph /  14.8km/h 81% 0in /  0.0mm
22:00 31.3 °F /  -0.4 °C 26.1 °F /  -3.3 °C 30.6in /  1036.1hPa SSW 5.8mph /  9.3km/h 8.5mph /  13.7km/h 81% 0in /  0.0mm
22:10 31.3 °F /  -0.4 °C 26.1 °F /  -3.3 °C 30.6in /  1035.1hPa South 3.6mph /  5.8km/h 9.6mph /  15.4km/h 81% 0in /  0.0mm
22:20 31.3 °F /  -0.4 °C 26.4 °F /  -3.1 °C 30.6in /  1035.1hPa South 7.8mph /  12.6km/h 9.8mph /  15.8km/h 82% 0in /  0.0mm
22:30 31.1 °F /  -0.5 °C 26.2 °F /  -3.2 °C 30.6in /  1035.1hPa South 6.3mph /  10.1km/h 8.5mph /  13.7km/h 82% 0in /  0.0mm
22:40 31.1 °F /  -0.5 °C 26.2 °F /  -3.2 °C 30.6in /  1035.1hPa South 7.8mph /  12.6km/h 8.7mph /  14.0km/h 82% 0in /  0.0mm
22:50 31.1 °F /  -0.5 °C 26.2 °F /  -3.2 °C 30.6in /  1035.1hPa South 8.7mph /  14.0km/h 12.1mph /  19.5km/h 82% 0in /  0.0mm
23:00 31.1 °F /  -0.5 °C 26.2 °F /  -3.2 °C 30.6in /  1035.1hPa South 4.9mph /  7.9km/h 9.8mph /  15.8km/h 82% 0in /  0.0mm
23:10 31.1 °F /  -0.5 °C 26.1 °F /  -3.3 °C 30.6in /  1035.1hPa SSW 6.3mph /  10.1km/h 10.1mph /  16.3km/h 81% 0in /  0.0mm
23:20 31.1 °F /  -0.5 °C 26.1 °F /  -3.3 °C 30.6in /  1035.1hPa SSW 4.3mph /  6.9km/h 10.3mph /  16.6km/h 81% 0in /  0.0mm
23:30 31.3 °F /  -0.4 °C 26.1 °F /  -3.3 °C 30.6in /  1035.1hPa SSW 8.1mph /  13.0km/h 8.5mph /  13.7km/h 81% 0in /  0.0mm
23:40 31.3 °F /  -0.4 °C 26.1 °F /  -3.3 °C 30.6in /  1035.1hPa South 5.6mph /  9.0km/h 8.7mph /  14.0km/h 81% 0in /  0.0mm
23:50 31.3 °F /  -0.4 °C 26.1 °F /  -3.3 °C 30.6in /  1035.1hPa SSW 7.8mph /  12.6km/h 8.9mph /  14.3km/h 81% 0in /  0.0mm
Données Historique de Météo Turbie

Mise a jour : 26/05/2018 06:00:13
Généré par Cumulus 1.9.4 (1099)